• Join FlightAware (Why Join?)
  • Login
  • US Flag 
08:43PM EDT


 

Airport Tracker/Info


-or-


 

Live Flight TrackerFlight Track Log ✈ JIA2419 ✈ 24-Apr-2012 ✈ KHPN - KCLT

Flight Track Log - Related Links

Times and Time Zones

All times are in EDT time to prevent confusion due to time zone crossing. See the JIA2419 flight status page for this flight to view local times or setup timezone preferences in your user account.

Time Position Orientation Groundspeed Altitude Reporting Facility
EDT Latitude Longitude Course Direction KTS MPH feet Rate Location/Type
06:44AM 41.0514 -73.7345 302° West  Level FlightAware Approximate
06:45AM 40.9937 -73.8344 35° Northeast  Level FlightAware Approximate
06:46AM 41.0667 -73.7667 270° West 192 221 4,200  Level New York TRACON
06:47AM 41.0667 -73.8333 270° West 203 234 6,900 1,380 Climbing New York TRACON
06:48AM 41.0667 -73.9167 225° Southwest 241 277 7,000  Climbing New York TRACON
06:49AM 41.0167 -73.9833 237° Southwest 243 280 7,000 180 Level New York TRACON
06:50AM 40.9833 -74.0500 237° Southwest 239 275 7,400 1,500 Climbing New York TRACON
06:51AM 40.9500 -74.1167 225° Southwest 228 262 9,900 2,520 Climbing New York TRACON
06:52AM 40.9000 -74.1833 232° Southwest 252 290 12,300 1,860 Climbing New York TRACON
06:54AM 40.7967 -74.3564 223° Southwest 286 329 15,900 1,440 Climbing New York Center
06:55AM 40.7406 -74.4247 217° Southwest 301 346 17,000 1,440 Climbing New York Center
06:56AM 40.6589 -74.5050 223° Southwest 328 377 18,800 1,800 Climbing New York Center
06:57AM 40.5894 -74.5889 224° Southwest 335 386 20,600 1,620 Climbing New York Center
06:58AM 40.5219 -74.6753 227° Southwest 335 386 22,100 1,440 Climbing New York Center
06:59AM 40.4564 -74.7669 229° Southwest 340 391 23,600 1,440 Climbing New York Center
07:00AM 40.3950 -74.8586 235° Southwest 347 399 25,100 1,560 Climbing New York Center
07:01AM 40.3369 -74.9669 237° Southwest 357 411 26,800 1,500 Climbing New York Center
07:02AM 40.2853 -75.0725 236° Southwest 350 403 28,100 1,080 Climbing New York Center
07:03AM 40.2314 -75.1753 238° Southwest 350 403 29,000 780 Climbing New York Center
07:04AM 40.1817 -75.2808 236° Southwest 350 403 29,700 600 Climbing New York Center
07:05AM 40.1253 -75.3883 227° Southwest 356 410 30,300 540 Climbing New York Center
07:06AM 40.0547 -75.4869 227° Southwest 369 425 30,900 600 Climbing New York Center
07:07AM 39.9839 -75.5850 227° Southwest 374 430 31,500 600 Climbing New York Center
07:08AM 39.9133 -75.6831 230° Southwest 374 430 32,100 540 Climbing New York Center
07:09AM 39.8464 -75.7864 230° Southwest 379 436 32,600 540 Climbing New York Center
07:10AM 39.7769 -75.8950 231° Southwest 384 442 33,200 540 Climbing New York Center
07:11AM 39.7097 -76.0033 231° Southwest 391 450 33,700 300 Climbing New York Center
07:12AM 39.6206 -76.1439 232° Southwest 381 438 34,000 120 Climbing Washington Center
07:13AM 39.5533 -76.2536 229° Southwest 387 445 34,000  Level Washington Center
07:14AM 39.4778 -76.3658 232° Southwest 398 458 34,000  Level Washington Center
07:15AM 39.4061 -76.4833 230° Southwest 411 473 34,000  Level Washington Center
07:16AM 39.3303 -76.6003 230° Southwest 422 486 34,000  Level Washington Center
07:17AM 39.2561 -76.7147 231° Southwest 427 491 34,000  Level Washington Center
07:18AM 39.1822 -76.8314 230° Southwest 427 491 34,000  Level Washington Center
07:19AM 39.1058 -76.9478 228° Southwest 427 491 34,000  Level Washington Center
07:20AM 39.0294 -77.0558 221° Southwest 427 491 34,000  Level Washington Center
07:21AM 38.9408 -77.1556 220° Southwest 421 484 34,000  Level Washington Center
07:22AM 38.8539 -77.2497 221° Southwest 416 479 34,000  Level Washington Center
07:23AM 38.7672 -77.3464 219° Southwest 416 479 34,000  Level Washington Center
07:24AM 38.6783 -77.4400 220° Southwest 416 479 34,000  Level Washington Center
07:25AM 38.5914 -77.5333 221° Southwest 416 479 34,000  Level Washington Center
07:26AM 38.5042 -77.6292 220° Southwest 410 472 34,000  Level Washington Center
07:27AM 38.4150 -77.7247 219° Southwest 416 479 34,000  Level Washington Center
07:28AM 38.3258 -77.8175 221° Southwest 416 479 34,000  Level Washington Center
07:29AM 38.2383 -77.9128 220° Southwest 416 479 34,000  Level Washington Center
07:30AM 38.1489 -78.0078 220° Southwest 416 479 34,000  Level Washington Center
07:31AM 38.0594 -78.1025 227° Southwest 411 473 34,000  Level Washington Center
07:32AM 37.9908 -78.1950 229° Southwest 411 473 34,000  Level Washington Center
07:33AM 37.9131 -78.3081 228° Southwest 418 481 34,000  Level Washington Center
07:34AM 37.8269 -78.4286 228° Southwest 429 494 34,000  Level Washington Center
07:35AM 37.7492 -78.5386 229° Southwest 429 494 34,000  Level Washington Center
07:36AM 37.6733 -78.6486 228° Southwest 429 494 34,000  Level Washington Center
07:37AM 37.5933 -78.7606 229° Southwest 429 494 34,000  Level Washington Center
07:38AM 37.5172 -78.8725 226° Southwest 429 494 34,000  Level Washington Center
07:39AM 37.4458 -78.9664 229° Southwest 429 494 34,000  Level Washington Center
07:40AM 37.3675 -79.0778 228° Southwest 429 494 34,000  Level Washington Center
07:41AM 37.2872 -79.1892 219° Southwest 429 494 34,000 -360 Level Washington Center
07:42AM 37.1944 -79.2839 214° Southwest 429 494 33,400 -720 Descending Washington Center
07:43AM 37.0939 -79.3700 213° Southwest 435 501 32,700 -660 Descending Washington Center
07:44AM 36.9931 -79.4508 214° Southwest 441 507 32,100 -840 Descending Washington Center
07:45AM 36.8839 -79.5417 214° Southwest 435 501 31,000 -1,080 Descending Washington Center
07:46AM 36.7914 -79.6197 213° Southwest 428 493 30,000 -1,140 Descending Washington Center
07:47AM 36.6992 -79.6953 213° Southwest 415 478 28,800 -1,380 Descending Washington Center
07:49AM 36.5547 -79.8108 212° Southwest 399 459 26,300 -1,620 Descending Atlanta Center
07:50AM 36.4633 -79.8825 214° Southwest 399 459 24,600 -1,860 Descending Atlanta Center
07:51AM 36.3661 -79.9625 214° Southwest 399 459 22,600 -1,500 Descending Atlanta Center
07:52AM 36.2767 -80.0364 214° Southwest 393 452 21,700 -1,380 Descending Atlanta Center
07:53AM 36.1914 -80.1075 216° Southwest 387 445 19,900 -1,860 Descending Atlanta Center
07:54AM 36.1122 -80.1783 214° Southwest 366 421 18,000 -1,860 Descending Atlanta Center
07:55AM 36.0308 -80.2464 215° Southwest 366 421 16,200 -1,680 Descending Atlanta Center
07:56AM 35.9619 -80.3061 217° Southwest 360 414 14,700 -1,500 Descending Atlanta Center
07:56AM 35.9133 -80.3519 216° Southwest 343 395 14,000 -1,080 Descending Atlanta Center
07:58AM 35.8361 -80.4219 212° Southwest 338 389 13,100 -720 Descending Atlanta Center
07:59AM 35.7647 -80.4764 216° Southwest 302 348 12,600 -780 Descending Atlanta Center
08:00AM 35.6994 -80.5356 186° South 294 338 11,600 -780 Descending Atlanta Center
08:01AM 35.6206 -80.5464 158° South 273 314 11,100 -840 Descending Atlanta Center
08:02AM 35.5592 -80.5158 205° Southwest 246 283 10,000 -1,200 Descending Atlanta Center
08:03AM 35.5017 -80.5489 228° Southwest 214 246 8,600 -1,320 Descending Atlanta Center
08:04AM 35.4617 -80.6042 227° Southwest 208 239 7,300 -1,080 Descending Atlanta Center
08:05AM 35.4214 -80.6569 228° Southwest 194 223 6,400 -660 Descending Atlanta Center
08:06AM 35.3931 -80.6961 233° Southwest 164 189 6,000 -780 Descending Atlanta Center
08:07AM 35.3653 -80.7406 225° Southwest 166 191 5,000 -960 Descending Atlanta Center
08:08AM 35.3289 -80.7853 229° Southwest 163 188 4,000 -900 Descending Atlanta Center
08:09AM 35.3006 -80.8247 229° Southwest 162 186 3,200 -900 Descending Atlanta Center